Drake, Colorado
Current Conditions -  °F | °C
As of 10:15 AM on Sunday 23 Nov 2014 (Local Time) from KFNL Reporting Station
Clear Clear  
Wind Chill: 35°   Ceiling: Unl
Heat Index: 43°   Visibility: 10mi
Dew Point: 14°   Wind: 16mph
Humidity: 31%   Direction: 340°NNW
Pressure: 29.82"   Gusts: NA
Location:  40.43°N, 105.34°W
Report Text: KFNL 231715Z AUTO 34014KT 10SM CLR 06/M10 A2982 RMK AO1
Loading
Personal Weather Stations






























Interactive Weather Map New forecast layout! Learn more

10-Day Weather Forecast

Advertisements
Track Severe Weather on mobile